sensor_id;sensor_type;location;lat;lon;timestamp;P1;durP1;ratioP1;P2;durP2;ratioP2
66429;SDS011;53242;51.694;10.006;2023-07-13T00:01:39;7.13;;;2.42;;
66429;SDS011;53242;51.694;10.006;2023-07-13T00:04:01;3.97;;;2.10;;
66429;SDS011;53242;51.694;10.006;2023-07-13T00:06:24;4.80;;;2.10;;
66429;SDS011;53242;51.694;10.006;2023-07-13T00:08:46;5.55;;;2.40;;
66429;SDS011;53242;51.694;10.006;2023-07-13T00:11:09;5.25;;;2.28;;
66429;SDS011;53242;51.694;10.006;2023-07-13T00:13:32;4.80;;;1.70;;
66429;SDS011;53242;51.694;10.006;2023-07-13T00:15:55;3.83;;;2.35;;
66429;SDS011;53242;51.694;10.006;2023-07-13T00:18:19;4.32;;;2.33;;
66429;SDS011;53242;51.694;10.006;2023-07-13T00:20:42;5.28;;;2.22;;
66429;SDS011;53242;51.694;10.006;2023-07-13T00:23:05;4.45;;;2.28;;
66429;SDS011;53242;51.694;10.006;2023-07-13T00:25:27;4.18;;;2.50;;
66429;SDS011;53242;51.694;10.006;2023-07-13T00:27:52;3.70;;;2.20;;
66429;SDS011;53242;51.694;10.006;2023-07-13T00:30:16;5.45;;;2.33;;
66429;SDS011;53242;51.694;10.006;2023-07-13T00:32:38;4.50;;;2.40;;
66429;SDS011;53242;51.694;10.006;2023-07-13T00:35:02;5.40;;;2.60;;
66429;SDS011;53242;51.694;10.006;2023-07-13T00:37:26;6.13;;;2.55;;
66429;SDS011;53242;51.694;10.006;2023-07-13T00:39:49;5.70;;;2.28;;
66429;SDS011;53242;51.694;10.006;2023-07-13T00:42:11;5.43;;;2.20;;
66429;SDS011;53242;51.694;10.006;2023-07-13T00:44:34;6.82;;;3.00;;
66429;SDS011;53242;51.694;10.006;2023-07-13T00:46:56;5.35;;;2.47;;
66429;SDS011;53242;51.694;10.006;2023-07-13T00:51:45;5.22;;;2.50;;
66429;SDS011;53242;51.694;10.006;2023-07-13T00:54:19;6.15;;;2.42;;
66429;SDS011;53242;51.694;10.006;2023-07-13T00:56:48;4.78;;;2.50;;
66429;SDS011;53242;51.694;10.006;2023-07-13T00:59:13;5.93;;;2.88;;
66429;SDS011;53242;51.694;10.006;2023-07-13T01:01:38;4.40;;;2.38;;
66429;SDS011;53242;51.694;10.006;2023-07-13T01:04:01;4.68;;;2.42;;
66429;SDS011;53242;51.694;10.006;2023-07-13T01:06:23;6.55;;;2.90;;
66429;SDS011;53242;51.694;10.006;2023-07-13T01:08:47;5.30;;;2.35;;
66429;SDS011;53242;51.694;10.006;2023-07-13T01:11:10;5.60;;;2.75;;
66429;SDS011;53242;51.694;10.006;2023-07-13T01:13:33;6.72;;;2.53;;
66429;SDS011;53242;51.694;10.006;2023-07-13T01:15:55;3.60;;;2.13;;
66429;SDS011;53242;51.694;10.006;2023-07-13T01:18:27;5.57;;;2.38;;
66429;SDS011;53242;51.694;10.006;2023-07-13T01:20:52;4.82;;;2.13;;
66429;SDS011;53242;51.694;10.006;2023-07-13T01:23:19;4.63;;;2.10;;
66429;SDS011;53242;51.694;10.006;2023-07-13T01:25:43;6.10;;;2.50;;
66429;SDS011;53242;51.694;10.006;2023-07-13T01:28:07;6.93;;;2.42;;
66429;SDS011;53242;51.694;10.006;2023-07-13T01:30:34;4.90;;;2.15;;
66429;SDS011;53242;51.694;10.006;2023-07-13T01:32:58;6.40;;;2.20;;
66429;SDS011;53242;51.694;10.006;2023-07-13T01:37:45;6.03;;;2.35;;
66429;SDS011;53242;51.694;10.006;2023-07-13T01:40:07;6.13;;;2.30;;
66429;SDS011;53242;51.694;10.006;2023-07-13T01:42:31;4.30;;;2.15;;
66429;SDS011;53242;51.694;10.006;2023-07-13T01:44:53;5.72;;;2.20;;
66429;SDS011;53242;51.694;10.006;2023-07-13T01:47:16;4.88;;;2.30;;
66429;SDS011;53242;51.694;10.006;2023-07-13T01:49:38;6.60;;;2.45;;
66429;SDS011;53242;51.694;10.006;2023-07-13T01:52:00;4.47;;;2.28;;
66429;SDS011;53242;51.694;10.006;2023-07-13T01:54:23;4.68;;;2.00;;
66429;SDS011;53242;51.694;10.006;2023-07-13T01:56:46;6.57;;;2.45;;
66429;SDS011;53242;51.694;10.006;2023-07-13T01:59:09;3.72;;;2.10;;
66429;SDS011;53242;51.694;10.006;2023-07-13T02:01:31;7.03;;;2.60;;
66429;SDS011;53242;51.694;10.006;2023-07-13T02:03:54;5.20;;;2.65;;
66429;SDS011;53242;51.694;10.006;2023-07-13T02:06:16;4.03;;;2.47;;
66429;SDS011;53242;51.694;10.006;2023-07-13T02:08:39;4.22;;;2.25;;
66429;SDS011;53242;51.694;10.006;2023-07-13T02:11:02;5.88;;;2.40;;
66429;SDS011;53242;51.694;10.006;2023-07-13T02:13:25;4.78;;;2.30;;
66429;SDS011;53242;51.694;10.006;2023-07-13T02:15:49;4.78;;;2.20;;
66429;SDS011;53242;51.694;10.006;2023-07-13T02:18:12;4.05;;;2.08;;
66429;SDS011;53242;51.694;10.006;2023-07-13T02:20:39;3.92;;;2.83;;
66429;SDS011;53242;51.694;10.006;2023-07-13T02:23:02;4.38;;;2.00;;
66429;SDS011;53242;51.694;10.006;2023-07-13T02:25:24;6.80;;;2.20;;
66429;SDS011;53242;51.694;10.006;2023-07-13T02:27:48;4.47;;;1.98;;
66429;SDS011;53242;51.694;10.006;2023-07-13T02:30:13;2.63;;;1.92;;
66429;SDS011;53242;51.694;10.006;2023-07-13T02:32:35;6.57;;;2.35;;
66429;SDS011;53242;51.694;10.006;2023-07-13T02:34:58;5.82;;;2.40;;
66429;SDS011;53242;51.694;10.006;2023-07-13T02:37:20;6.47;;;2.85;;
66429;SDS011;53242;51.694;10.006;2023-07-13T02:39:43;5.13;;;2.42;;
66429;SDS011;53242;51.694;10.006;2023-07-13T02:42:06;6.57;;;2.25;;
66429;SDS011;53242;51.694;10.006;2023-07-13T02:44:28;3.95;;;2.28;;
66429;SDS011;53242;51.694;10.006;2023-07-13T02:46:51;4.20;;;1.88;;
66429;SDS011;53242;51.694;10.006;2023-07-13T02:49:14;4.47;;;2.50;;
66429;SDS011;53242;51.694;10.006;2023-07-13T02:51:37;5.10;;;2.40;;
66429;SDS011;53242;51.694;10.006;2023-07-13T02:54:02;3.90;;;1.77;;
66429;SDS011;53242;51.694;10.006;2023-07-13T02:56:27;3.90;;;2.20;;
66429;SDS011;53242;51.694;10.006;2023-07-13T02:58:50;5.82;;;2.25;;
66429;SDS011;53242;51.694;10.006;2023-07-13T03:01:13;7.55;;;2.60;;
66429;SDS011;53242;51.694;10.006;2023-07-13T03:03:40;5.68;;;2.38;;
66429;SDS011;53242;51.694;10.006;2023-07-13T03:06:03;5.50;;;2.40;;
66429;SDS011;53242;51.694;10.006;2023-07-13T03:08:36;3.95;;;2.45;;
66429;SDS011;53242;51.694;10.006;2023-07-13T03:11:02;7.13;;;2.65;;
66429;SDS011;53242;51.694;10.006;2023-07-13T03:13:30;4.90;;;2.38;;
66429;SDS011;53242;51.694;10.006;2023-07-13T03:15:53;4.68;;;2.50;;
66429;SDS011;53242;51.694;10.006;2023-07-13T03:18:15;5.95;;;2.08;;
66429;SDS011;53242;51.694;10.006;2023-07-13T03:20:38;4.22;;;2.40;;
66429;SDS011;53242;51.694;10.006;2023-07-13T03:23:00;5.10;;;2.20;;
66429;SDS011;53242;51.694;10.006;2023-07-13T03:25:23;5.90;;;2.30;;
66429;SDS011;53242;51.694;10.006;2023-07-13T03:27:46;4.55;;;2.38;;
66429;SDS011;53242;51.694;10.006;2023-07-13T03:30:09;3.70;;;2.17;;
66429;SDS011;53242;51.694;10.006;2023-07-13T03:32:32;5.75;;;2.42;;
66429;SDS011;53242;51.694;10.006;2023-07-13T03:34:54;4.55;;;2.58;;
66429;SDS011;53242;51.694;10.006;2023-07-13T03:37:18;4.20;;;2.28;;
66429;SDS011;53242;51.694;10.006;2023-07-13T03:39:40;6.72;;;2.40;;
66429;SDS011;53242;51.694;10.006;2023-07-13T03:42:03;8.63;;;2.70;;
66429;SDS011;53242;51.694;10.006;2023-07-13T03:44:25;5.45;;;2.67;;
66429;SDS011;53242;51.694;10.006;2023-07-13T03:46:52;6.30;;;2.20;;
66429;SDS011;53242;51.694;10.006;2023-07-13T03:49:15;6.40;;;2.35;;
66429;SDS011;53242;51.694;10.006;2023-07-13T03:51:37;5.07;;;2.30;;
66429;SDS011;53242;51.694;10.006;2023-07-13T03:54:01;5.35;;;2.22;;
66429;SDS011;53242;51.694;10.006;2023-07-13T03:56:24;4.88;;;2.28;;
66429;SDS011;53242;51.694;10.006;2023-07-13T03:58:48;4.80;;;2.60;;
66429;SDS011;53242;51.694;10.006;2023-07-13T04:01:17;6.93;;;2.90;;
66429;SDS011;53242;51.694;10.006;2023-07-13T04:03:42;5.85;;;2.60;;
66429;SDS011;53242;51.694;10.006;2023-07-13T04:06:05;4.35;;;2.40;;
66429;SDS011;53242;51.694;10.006;2023-07-13T04:08:29;7.25;;;2.92;;
66429;SDS011;53242;51.694;10.006;2023-07-13T04:10:54;5.65;;;2.70;;
66429;SDS011;53242;51.694;10.006;2023-07-13T04:13:16;7.10;;;2.83;;
66429;SDS011;53242;51.694;10.006;2023-07-13T04:15:39;7.05;;;2.70;;
66429;SDS011;53242;51.694;10.006;2023-07-13T04:18:02;8.93;;;2.70;;
66429;SDS011;53242;51.694;10.006;2023-07-13T04:20:25;8.27;;;3.15;;
66429;SDS011;53242;51.694;10.006;2023-07-13T04:22:48;6.20;;;2.33;;
66429;SDS011;53242;51.694;10.006;2023-07-13T04:25:10;4.22;;;2.40;;
66429;SDS011;53242;51.694;10.006;2023-07-13T04:27:33;6.00;;;2.92;;
66429;SDS011;53242;51.694;10.006;2023-07-13T04:29:55;5.60;;;2.65;;
66429;SDS011;53242;51.694;10.006;2023-07-13T04:32:17;8.30;;;2.85;;
66429;SDS011;53242;51.694;10.006;2023-07-13T04:34:40;6.97;;;2.60;;
66429;SDS011;53242;51.694;10.006;2023-07-13T04:37:02;10.32;;;3.15;;
66429;SDS011;53242;51.694;10.006;2023-07-13T04:39:26;5.05;;;2.70;;
66429;SDS011;53242;51.694;10.006;2023-07-13T04:41:48;6.65;;;2.83;;
66429;SDS011;53242;51.694;10.006;2023-07-13T04:44:11;4.40;;;2.17;;
66429;SDS011;53242;51.694;10.006;2023-07-13T04:46:33;8.63;;;2.83;;
66429;SDS011;53242;51.694;10.006;2023-07-13T04:48:56;6.60;;;2.78;;
66429;SDS011;53242;51.694;10.006;2023-07-13T04:51:19;5.95;;;2.40;;
66429;SDS011;53242;51.694;10.006;2023-07-13T04:53:42;6.22;;;2.50;;
66429;SDS011;53242;51.694;10.006;2023-07-13T04:56:05;5.60;;;2.00;;
66429;SDS011;53242;51.694;10.006;2023-07-13T04:58:28;6.85;;;2.67;;
66429;SDS011;53242;51.694;10.006;2023-07-13T05:00:50;4.90;;;2.55;;
66429;SDS011;53242;51.694;10.006;2023-07-13T05:03:13;4.07;;;2.40;;
66429;SDS011;53242;51.694;10.006;2023-07-13T05:05:35;7.90;;;2.50;;
66429;SDS011;53242;51.694;10.006;2023-07-13T05:07:57;5.28;;;2.42;;
66429;SDS011;53242;51.694;10.006;2023-07-13T05:10:20;8.25;;;3.08;;
66429;SDS011;53242;51.694;10.006;2023-07-13T05:12:43;6.50;;;2.60;;
66429;SDS011;53242;51.694;10.006;2023-07-13T05:15:05;5.22;;;2.38;;
66429;SDS011;53242;51.694;10.006;2023-07-13T05:17:28;7.10;;;2.50;;
66429;SDS011;53242;51.694;10.006;2023-07-13T05:19:51;4.50;;;2.40;;
66429;SDS011;53242;51.694;10.006;2023-07-13T05:22:13;6.88;;;2.30;;
66429;SDS011;53242;51.694;10.006;2023-07-13T05:24:36;5.38;;;2.30;;
66429;SDS011;53242;51.694;10.006;2023-07-13T05:26:58;5.78;;;2.53;;
66429;SDS011;53242;51.694;10.006;2023-07-13T05:29:21;4.13;;;2.17;;
66429;SDS011;53242;51.694;10.006;2023-07-13T05:31:44;4.97;;;2.40;;
66429;SDS011;53242;51.694;10.006;2023-07-13T05:34:06;5.43;;;2.53;;
66429;SDS011;53242;51.694;10.006;2023-07-13T05:36:29;3.45;;;2.03;;
66429;SDS011;53242;51.694;10.006;2023-07-13T05:38:51;6.70;;;2.33;;
66429;SDS011;53242;51.694;10.006;2023-07-13T05:41:13;8.77;;;2.28;;
66429;SDS011;53242;51.694;10.006;2023-07-13T05:43:36;9.70;;;2.58;;
66429;SDS011;53242;51.694;10.006;2023-07-13T05:45:58;7.82;;;2.40;;
66429;SDS011;53242;51.694;10.006;2023-07-13T05:48:21;6.70;;;2.10;;
66429;SDS011;53242;51.694;10.006;2023-07-13T05:50:43;6.88;;;2.20;;
66429;SDS011;53242;51.694;10.006;2023-07-13T05:53:05;6.53;;;2.47;;
66429;SDS011;53242;51.694;10.006;2023-07-13T05:55:28;5.75;;;2.30;;
66429;SDS011;53242;51.694;10.006;2023-07-13T05:57:51;5.47;;;2.10;;
66429;SDS011;53242;51.694;10.006;2023-07-13T06:00:13;5.70;;;1.90;;
66429;SDS011;53242;51.694;10.006;2023-07-13T06:02:36;7.43;;;2.50;;
66429;SDS011;53242;51.694;10.006;2023-07-13T06:04:59;7.82;;;1.98;;
66429;SDS011;53242;51.694;10.006;2023-07-13T06:07:21;6.28;;;1.85;;
66429;SDS011;53242;51.694;10.006;2023-07-13T06:09:43;6.07;;;2.00;;
66429;SDS011;53242;51.694;10.006;2023-07-13T06:12:06;7.22;;;1.77;;
66429;SDS011;53242;51.694;10.006;2023-07-13T06:14:29;8.32;;;1.77;;
66429;SDS011;53242;51.694;10.006;2023-07-13T06:16:51;6.53;;;1.75;;
66429;SDS011;53242;51.694;10.006;2023-07-13T06:19:14;5.82;;;2.13;;
66429;SDS011;53242;51.694;10.006;2023-07-13T06:21:36;4.43;;;1.50;;
66429;SDS011;53242;51.694;10.006;2023-07-13T06:23:58;4.70;;;1.70;;
66429;SDS011;53242;51.694;10.006;2023-07-13T06:26:21;5.95;;;1.70;;
66429;SDS011;53242;51.694;10.006;2023-07-13T06:28:43;6.05;;;1.80;;
66429;SDS011;53242;51.694;10.006;2023-07-13T06:31:07;6.05;;;1.58;;
66429;SDS011;53242;51.694;10.006;2023-07-13T06:33:30;5.35;;;1.70;;
66429;SDS011;53242;51.694;10.006;2023-07-13T06:35:52;7.90;;;2.85;;
66429;SDS011;53242;51.694;10.006;2023-07-13T06:38:17;5.13;;;1.55;;
66429;SDS011;53242;51.694;10.006;2023-07-13T06:40:39;2.17;;;1.35;;
66429;SDS011;53242;51.694;10.006;2023-07-13T06:43:03;4.68;;;1.50;;
66429;SDS011;53242;51.694;10.006;2023-07-13T06:45:25;4.38;;;1.45;;
66429;SDS011;53242;51.694;10.006;2023-07-13T06:47:47;4.68;;;1.50;;
66429;SDS011;53242;51.694;10.006;2023-07-13T06:50:11;3.75;;;1.67;;
66429;SDS011;53242;51.694;10.006;2023-07-13T06:52:34;3.40;;;1.50;;
66429;SDS011;53242;51.694;10.006;2023-07-13T06:54:56;8.02;;;1.80;;
66429;SDS011;53242;51.694;10.006;2023-07-13T06:57:18;4.88;;;1.48;;
66429;SDS011;53242;51.694;10.006;2023-07-13T06:59:41;5.05;;;1.40;;
66429;SDS011;53242;51.694;10.006;2023-07-13T07:02:03;6.57;;;1.50;;
66429;SDS011;53242;51.694;10.006;2023-07-13T07:04:26;6.13;;;1.77;;
66429;SDS011;53242;51.694;10.006;2023-07-13T07:06:49;6.10;;;1.52;;
66429;SDS011;53242;51.694;10.006;2023-07-13T07:09:11;5.63;;;1.83;;
66429;SDS011;53242;51.694;10.006;2023-07-13T07:11:33;5.13;;;1.52;;
66429;SDS011;53242;51.694;10.006;2023-07-13T07:13:56;5.68;;;1.55;;
66429;SDS011;53242;51.694;10.006;2023-07-13T07:16:18;7.32;;;1.45;;
66429;SDS011;53242;51.694;10.006;2023-07-13T07:18:42;3.85;;;1.70;;
66429;SDS011;53242;51.694;10.006;2023-07-13T07:21:04;3.00;;;1.40;;
66429;SDS011;53242;51.694;10.006;2023-07-13T07:23:26;4.30;;;1.48;;
66429;SDS011;53242;51.694;10.006;2023-07-13T07:25:49;3.22;;;1.33;;
66429;SDS011;53242;51.694;10.006;2023-07-13T07:28:15;4.20;;;1.48;;
66429;SDS011;53242;51.694;10.006;2023-07-13T07:30:46;2.72;;;1.30;;
66429;SDS011;53242;51.694;10.006;2023-07-13T07:33:09;2.20;;;1.13;;
66429;SDS011;53242;51.694;10.006;2023-07-13T07:35:32;4.28;;;1.20;;
66429;SDS011;53242;51.694;10.006;2023-07-13T07:37:54;5.72;;;1.60;;
66429;SDS011;53242;51.694;10.006;2023-07-13T07:40:17;3.92;;;1.50;;
66429;SDS011;53242;51.694;10.006;2023-07-13T07:42:40;5.95;;;1.63;;
66429;SDS011;53242;51.694;10.006;2023-07-13T07:45:02;6.22;;;1.75;;
66429;SDS011;53242;51.694;10.006;2023-07-13T07:47:25;6.47;;;1.80;;
66429;SDS011;53242;51.694;10.006;2023-07-13T07:49:47;6.38;;;1.85;;
66429;SDS011;53242;51.694;10.006;2023-07-13T07:52:10;4.05;;;1.40;;
66429;SDS011;53242;51.694;10.006;2023-07-13T07:54:32;3.70;;;1.52;;
66429;SDS011;53242;51.694;10.006;2023-07-13T07:56:55;5.28;;;1.60;;
66429;SDS011;53242;51.694;10.006;2023-07-13T07:59:17;2.67;;;1.35;;
66429;SDS011;53242;51.694;10.006;2023-07-13T08:01:40;3.75;;;1.60;;
66429;SDS011;53242;51.694;10.006;2023-07-13T08:04:03;2.60;;;1.20;;
66429;SDS011;53242;51.694;10.006;2023-07-13T08:06:25;3.92;;;1.50;;
66429;SDS011;53242;51.694;10.006;2023-07-13T08:08:48;5.07;;;1.50;;
66429;SDS011;53242;51.694;10.006;2023-07-13T08:11:10;2.53;;;1.30;;
66429;SDS011;53242;51.694;10.006;2023-07-13T08:13:33;4.40;;;1.48;;
66429;SDS011;53242;51.694;10.006;2023-07-13T08:15:56;3.22;;;1.30;;
66429;SDS011;53242;51.694;10.006;2023-07-13T08:18:18;3.35;;;1.48;;
66429;SDS011;53242;51.694;10.006;2023-07-13T08:20:40;5.35;;;1.65;;
66429;SDS011;53242;51.694;10.006;2023-07-13T08:23:03;3.38;;;1.30;;
66429;SDS011;53242;51.694;10.006;2023-07-13T08:25:25;4.97;;;1.60;;
66429;SDS011;53242;51.694;10.006;2023-07-13T08:27:48;3.35;;;1.48;;
66429;SDS011;53242;51.694;10.006;2023-07-13T08:30:10;3.40;;;1.67;;
66429;SDS011;53242;51.694;10.006;2023-07-13T08:32:32;4.15;;;1.50;;
66429;SDS011;53242;51.694;10.006;2023-07-13T08:34:55;3.83;;;1.30;;
66429;SDS011;53242;51.694;10.006;2023-07-13T08:37:17;2.45;;;1.40;;
66429;SDS011;53242;51.694;10.006;2023-07-13T08:39:40;2.58;;;1.10;;
66429;SDS011;53242;51.694;10.006;2023-07-13T08:42:05;1.98;;;0.98;;
66429;SDS011;53242;51.694;10.006;2023-07-13T08:44:53;2.05;;;1.38;;
66429;SDS011;53242;51.694;10.006;2023-07-13T08:47:23;4.00;;;1.40;;
66429;SDS011;53242;51.694;10.006;2023-07-13T08:49:47;4.32;;;1.30;;
66429;SDS011;53242;51.694;10.006;2023-07-13T08:52:12;3.45;;;1.20;;
66429;SDS011;53242;51.694;10.006;2023-07-13T08:54:53;2.67;;;1.27;;
66429;SDS011;53242;51.694;10.006;2023-07-13T08:57:20;2.30;;;0.90;;
66429;SDS011;53242;51.694;10.006;2023-07-13T08:59:46;5.80;;;1.25;;
66429;SDS011;53242;51.694;10.006;2023-07-13T09:02:18;4.20;;;1.40;;
66429;SDS011;53242;51.694;10.006;2023-07-13T09:04:58;4.28;;;1.48;;
66429;SDS011;53242;51.694;10.006;2023-07-13T09:07:29;2.38;;;1.38;;
66429;SDS011;53242;51.694;10.006;2023-07-13T09:12:31;2.33;;;1.30;;
66429;SDS011;53242;51.694;10.006;2023-07-13T09:15:21;4.45;;;1.48;;
66429;SDS011;53242;51.694;10.006;2023-07-13T09:17:48;5.28;;;1.10;;
66429;SDS011;53242;51.694;10.006;2023-07-13T09:20:21;2.83;;;1.50;;
66429;SDS011;53242;51.694;10.006;2023-07-13T09:22:49;3.75;;;1.42;;
66429;SDS011;53242;51.694;10.006;2023-07-13T09:25:20;4.18;;;1.23;;
66429;SDS011;53242;51.694;10.006;2023-07-13T09:27:55;3.70;;;1.30;;
66429;SDS011;53242;51.694;10.006;2023-07-13T09:30:23;3.85;;;1.30;;
66429;SDS011;53242;51.694;10.006;2023-07-13T09:32:52;6.07;;;1.60;;
66429;SDS011;53242;51.694;10.006;2023-07-13T09:35:16;3.97;;;1.40;;
66429;SDS011;53242;51.694;10.006;2023-07-13T09:37:43;3.75;;;1.40;;
66429;SDS011;53242;51.694;10.006;2023-07-13T09:40:09;5.30;;;1.40;;
66429;SDS011;53242;51.694;10.006;2023-07-13T09:42:35;4.20;;;1.35;;
66429;SDS011;53242;51.694;10.006;2023-07-13T09:44:59;2.88;;;1.20;;
66429;SDS011;53242;51.694;10.006;2023-07-13T09:47:37;4.05;;;1.20;;
66429;SDS011;53242;51.694;10.006;2023-07-13T09:50:06;3.72;;;1.35;;
66429;SDS011;53242;51.694;10.006;2023-07-13T09:52:43;2.95;;;1.20;;
66429;SDS011;53242;51.694;10.006;2023-07-13T09:55:17;3.25;;;1.30;;
66429;SDS011;53242;51.694;10.006;2023-07-13T09:57:48;4.78;;;1.30;;
66429;SDS011;53242;51.694;10.006;2023-07-13T10:00:18;2.40;;;1.35;;
66429;SDS011;53242;51.694;10.006;2023-07-13T10:02:44;3.97;;;1.42;;
66429;SDS011;53242;51.694;10.006;2023-07-13T10:05:10;5.57;;;1.73;;
66429;SDS011;53242;51.694;10.006;2023-07-13T10:07:38;4.32;;;1.45;;
66429;SDS011;53242;51.694;10.006;2023-07-13T10:10:02;2.83;;;0.93;;
66429;SDS011;53242;51.694;10.006;2023-07-13T10:12:24;3.05;;;1.52;;
66429;SDS011;53242;51.694;10.006;2023-07-13T10:14:47;5.03;;;1.42;;
66429;SDS011;53242;51.694;10.006;2023-07-13T10:17:10;4.72;;;1.33;;
66429;SDS011;53242;51.694;10.006;2023-07-13T10:19:35;3.63;;;1.20;;
66429;SDS011;53242;51.694;10.006;2023-07-13T10:21:59;5.13;;;1.27;;
66429;SDS011;53242;51.694;10.006;2023-07-13T10:24:24;4.32;;;1.50;;
66429;SDS011;53242;51.694;10.006;2023-07-13T10:29:41;6.57;;;1.60;;
66429;SDS011;53242;51.694;10.006;2023-07-13T10:32:11;3.53;;;1.30;;
66429;SDS011;53242;51.694;10.006;2023-07-13T10:34:35;4.55;;;1.27;;
66429;SDS011;53242;51.694;10.006;2023-07-13T10:36:57;3.55;;;1.23;;
66429;SDS011;53242;51.694;10.006;2023-07-13T10:39:22;2.83;;;1.35;;
66429;SDS011;53242;51.694;10.006;2023-07-13T10:41:48;4.45;;;1.35;;
66429;SDS011;53242;51.694;10.006;2023-07-13T10:44:23;5.72;;;1.65;;
66429;SDS011;53242;51.694;10.006;2023-07-13T10:46:48;6.00;;;1.48;;
66429;SDS011;53242;51.694;10.006;2023-07-13T10:49:11;6.82;;;1.60;;
66429;SDS011;53242;51.694;10.006;2023-07-13T10:51:34;1.92;;;1.30;;
66429;SDS011;53242;51.694;10.006;2023-07-13T10:54:11;3.45;;;1.25;;
66429;SDS011;53242;51.694;10.006;2023-07-13T10:56:44;2.75;;;1.10;;
66429;SDS011;53242;51.694;10.006;2023-07-13T10:59:12;3.28;;;0.85;;
66429;SDS011;53242;51.694;10.006;2023-07-13T11:01:51;5.20;;;1.20;;
66429;SDS011;53242;51.694;10.006;2023-07-13T11:04:24;3.17;;;1.40;;
66429;SDS011;53242;51.694;10.006;2023-07-13T11:06:50;3.28;;;1.70;;
66429;SDS011;53242;51.694;10.006;2023-07-13T11:09:24;6.60;;;2.25;;
66429;SDS011;53242;51.694;10.006;2023-07-13T11:11:55;5.97;;;1.73;;
66429;SDS011;53242;51.694;10.006;2023-07-13T11:17:00;2.38;;;1.40;;
66429;SDS011;53242;51.694;10.006;2023-07-13T11:19:54;3.80;;;1.80;;
66429;SDS011;53242;51.694;10.006;2023-07-13T11:22:43;4.97;;;1.90;;
66429;SDS011;53242;51.694;10.006;2023-07-13T11:27:43;3.83;;;1.30;;
66429;SDS011;53242;51.694;10.006;2023-07-13T11:30:09;4.60;;;1.50;;
66429;SDS011;53242;51.694;10.006;2023-07-13T11:32:39;3.28;;;1.92;;
66429;SDS011;53242;51.694;10.006;2023-07-13T11:35:02;4.45;;;1.40;;
66429;SDS011;53242;51.694;10.006;2023-07-13T11:37:24;4.13;;;1.23;;
66429;SDS011;53242;51.694;10.006;2023-07-13T11:39:48;4.30;;;1.50;;
66429;SDS011;53242;51.694;10.006;2023-07-13T11:42:15;5.22;;;1.45;;
66429;SDS011;53242;51.694;10.006;2023-07-13T11:44:43;4.70;;;1.60;;
66429;SDS011;53242;51.694;10.006;2023-07-13T11:47:17;3.90;;;1.50;;
66429;SDS011;53242;51.694;10.006;2023-07-13T11:49:43;4.20;;;1.50;;
66429;SDS011;53242;51.694;10.006;2023-07-13T11:52:13;5.32;;;1.75;;
66429;SDS011;53242;51.694;10.006;2023-07-13T11:54:51;5.75;;;1.67;;
66429;SDS011;53242;51.694;10.006;2023-07-13T11:57:22;2.22;;;0.90;;
66429;SDS011;53242;51.694;10.006;2023-07-13T11:59:48;4.45;;;1.52;;
66429;SDS011;53242;51.694;10.006;2023-07-13T12:02:17;3.38;;;1.38;;
66429;SDS011;53242;51.694;10.006;2023-07-13T12:04:47;4.03;;;1.55;;
66429;SDS011;53242;51.694;10.006;2023-07-13T12:07:17;3.55;;;1.70;;
66429;SDS011;53242;51.694;10.006;2023-07-13T12:09:41;3.28;;;1.33;;
66429;SDS011;53242;51.694;10.006;2023-07-13T12:12:08;4.20;;;1.42;;
66429;SDS011;53242;51.694;10.006;2023-07-13T12:14:33;4.63;;;1.63;;
66429;SDS011;53242;51.694;10.006;2023-07-13T12:16:56;3.35;;;1.48;;
66429;SDS011;53242;51.694;10.006;2023-07-13T12:19:20;1.95;;;1.40;;
66429;SDS011;53242;51.694;10.006;2023-07-13T12:21:44;2.70;;;1.35;;
66429;SDS011;53242;51.694;10.006;2023-07-13T12:24:13;3.65;;;1.52;;
66429;SDS011;53242;51.694;10.006;2023-07-13T12:26:37;3.42;;;1.50;;
66429;SDS011;53242;51.694;10.006;2023-07-13T12:29:00;3.20;;;1.58;;
66429;SDS011;53242;51.694;10.006;2023-07-13T12:31:35;4.40;;;1.48;;
66429;SDS011;53242;51.694;10.006;2023-07-13T12:34:08;4.22;;;1.58;;
66429;SDS011;53242;51.694;10.006;2023-07-13T12:36:35;3.38;;;1.58;;
66429;SDS011;53242;51.694;10.006;2023-07-13T12:39:00;6.50;;;1.77;;
66429;SDS011;53242;51.694;10.006;2023-07-13T12:41:26;4.20;;;1.70;;
66429;SDS011;53242;51.694;10.006;2023-07-13T12:43:49;2.47;;;1.40;;
66429;SDS011;53242;51.694;10.006;2023-07-13T12:46:16;3.90;;;1.60;;
66429;SDS011;53242;51.694;10.006;2023-07-13T12:48:39;3.75;;;1.92;;
66429;SDS011;53242;51.694;10.006;2023-07-13T12:51:04;5.43;;;1.65;;
66429;SDS011;53242;51.694;10.006;2023-07-13T12:53:29;3.00;;;1.45;;
66429;SDS011;53242;51.694;10.006;2023-07-13T12:56:01;6.13;;;2.28;;
66429;SDS011;53242;51.694;10.006;2023-07-13T12:58:29;5.30;;;1.70;;
66429;SDS011;53242;51.694;10.006;2023-07-13T13:00:55;4.38;;;1.02;;
66429;SDS011;53242;51.694;10.006;2023-07-13T13:05:56;2.20;;;1.35;;
66429;SDS011;53242;51.694;10.006;2023-07-13T13:08:25;6.13;;;1.50;;
66429;SDS011;53242;51.694;10.006;2023-07-13T13:10:47;4.18;;;1.42;;
66429;SDS011;53242;51.694;10.006;2023-07-13T13:13:09;2.88;;;1.67;;
66429;SDS011;53242;51.694;10.006;2023-07-13T13:15:32;4.03;;;1.70;;
66429;SDS011;53242;51.694;10.006;2023-07-13T13:17:54;3.95;;;1.50;;
66429;SDS011;53242;51.694;10.006;2023-07-13T13:20:18;3.13;;;1.48;;
66429;SDS011;53242;51.694;10.006;2023-07-13T13:22:43;6.20;;;2.38;;
66429;SDS011;53242;51.694;10.006;2023-07-13T13:25:06;2.92;;;1.75;;
66429;SDS011;53242;51.694;10.006;2023-07-13T13:27:32;3.50;;;1.75;;
66429;SDS011;53242;51.694;10.006;2023-07-13T13:29:54;5.45;;;1.98;;
66429;SDS011;53242;51.694;10.006;2023-07-13T13:32:16;3.53;;;1.60;;
66429;SDS011;53242;51.694;10.006;2023-07-13T13:34:39;6.05;;;1.70;;
66429;SDS011;53242;51.694;10.006;2023-07-13T13:37:02;5.22;;;1.60;;
66429;SDS011;53242;51.694;10.006;2023-07-13T13:39:25;3.78;;;1.90;;
66429;SDS011;53242;51.694;10.006;2023-07-13T13:41:53;3.40;;;1.75;;
66429;SDS011;53242;51.694;10.006;2023-07-13T13:44:16;3.70;;;1.40;;
66429;SDS011;53242;51.694;10.006;2023-07-13T13:46:39;3.38;;;1.55;;
66429;SDS011;53242;51.694;10.006;2023-07-13T13:49:01;4.15;;;1.20;;
66429;SDS011;53242;51.694;10.006;2023-07-13T13:51:24;3.22;;;1.60;;
66429;SDS011;53242;51.694;10.006;2023-07-13T13:53:48;2.70;;;1.70;;
66429;SDS011;53242;51.694;10.006;2023-07-13T13:56:11;4.63;;;1.83;;
66429;SDS011;53242;51.694;10.006;2023-07-13T13:58:34;4.35;;;1.77;;
66429;SDS011;53242;51.694;10.006;2023-07-13T14:00:57;6.32;;;1.88;;
66429;SDS011;53242;51.694;10.006;2023-07-13T14:03:20;5.22;;;1.40;;
66429;SDS011;53242;51.694;10.006;2023-07-13T14:08:11;4.28;;;1.60;;
66429;SDS011;53242;51.694;10.006;2023-07-13T14:10:36;4.07;;;1.83;;
66429;SDS011;53242;51.694;10.006;2023-07-13T14:12:58;3.58;;;1.75;;
66429;SDS011;53242;51.694;10.006;2023-07-13T14:15:23;3.67;;;1.65;;
66429;SDS011;53242;51.694;10.006;2023-07-13T14:17:48;4.47;;;1.63;;
66429;SDS011;53242;51.694;10.006;2023-07-13T14:20:12;3.72;;;1.48;;
66429;SDS011;53242;51.694;10.006;2023-07-13T14:22:34;5.85;;;1.90;;
66429;SDS011;53242;51.694;10.006;2023-07-13T14:24:56;2.78;;;1.70;;
66429;SDS011;53242;51.694;10.006;2023-07-13T14:27:21;4.03;;;1.83;;
66429;SDS011;53242;51.694;10.006;2023-07-13T14:29:44;5.47;;;1.67;;
66429;SDS011;53242;51.694;10.006;2023-07-13T14:32:08;3.97;;;1.60;;
66429;SDS011;53242;51.694;10.006;2023-07-13T14:34:32;3.85;;;1.70;;
66429;SDS011;53242;51.694;10.006;2023-07-13T14:36:55;2.85;;;1.55;;
66429;SDS011;53242;51.694;10.006;2023-07-13T14:39:18;3.05;;;1.98;;